createdAt,value
2023-04-16T00:00:55.120Z,102148.38
2023-04-16T00:03:21.654Z,102147.03
2023-04-16T00:05:48.310Z,102149.69
2023-04-16T00:08:14.835Z,102153.09
2023-04-16T00:10:41.356Z,102146.38
2023-04-16T00:13:07.951Z,102146.38
2023-04-16T00:15:34.423Z,102156.34
2023-04-16T00:18:01.073Z,102160.13
2023-04-16T00:20:27.585Z,102143.63
2023-04-16T00:22:54.020Z,102155.81
2023-04-16T00:25:20.506Z,102169.09
2023-04-16T00:27:46.963Z,102137.38
2023-04-16T00:30:13.516Z,102157.16
2023-04-16T00:32:39.875Z,102146.72
2023-04-16T00:35:06.882Z,102156.38
2023-04-16T00:37:33.256Z,102154.88
2023-04-16T00:39:59.789Z,102152.91
2023-04-16T00:42:26.384Z,102154.75
2023-04-16T00:44:52.739Z,102151.94
2023-04-16T00:47:21.674Z,102136.75
2023-04-16T00:49:48.271Z,102156.72
2023-04-16T00:52:14.922Z,102164.34
2023-04-16T00:54:41.695Z,102157.31
2023-04-16T00:57:08.092Z,102163.41
2023-04-16T00:59:34.459Z,102163.53
2023-04-16T01:02:00.938Z,102142.25
2023-04-16T01:04:27.440Z,102171.22
2023-04-16T01:06:53.947Z,102158.94
2023-04-16T01:09:20.287Z,102168.25
2023-04-16T01:11:46.701Z,102173.47
2023-04-16T01:14:13.064Z,102155.81
2023-04-16T01:16:39.400Z,102166.31
2023-04-16T01:19:05.739Z,102173.19
2023-04-16T01:21:32.160Z,102162.38
2023-04-16T01:24:02.628Z,102166.97
2023-04-16T01:26:29.005Z,102154.53
2023-04-16T01:28:55.378Z,102159.13
2023-04-16T01:31:21.790Z,102163.25
2023-04-16T01:33:48.169Z,102164.97
2023-04-16T01:36:14.575Z,102157.63
2023-04-16T01:38:40.994Z,102174.97
2023-04-16T01:41:07.423Z,102156.19
2023-04-16T01:43:33.858Z,102158.47
2023-04-16T01:46:15.246Z,102161.94
2023-04-16T01:48:41.866Z,102151.44
2023-04-16T01:51:08.367Z,102154.53
2023-04-16T01:53:36.933Z,102148.22
2023-04-16T01:56:03.886Z,102153.06
2023-04-16T01:58:31.129Z,102153.44
2023-04-16T02:00:57.703Z,102153.44
2023-04-16T02:03:24.472Z,102161.44
2023-04-16T02:05:51.556Z,102164.06
2023-04-16T02:08:18.224Z,102163.41
2023-04-16T02:10:49.926Z,102162.13
2023-04-16T02:13:17.049Z,102163.41
2023-04-16T02:15:47.469Z,102166.97
2023-04-16T02:18:14.072Z,102151.50
2023-04-16T02:20:41.637Z,102153.44
2023-04-16T02:23:08.433Z,102159.63
2023-04-16T02:25:41.890Z,102166.06
2023-04-16T02:28:13.131Z,102162.13
2023-04-16T02:30:40.687Z,102158.19
2023-04-16T02:33:09.569Z,102158.03
2023-04-16T02:35:36.385Z,102156.56
2023-04-16T02:38:03.502Z,102164.41
2023-04-16T02:40:30.821Z,102161.78
2023-04-16T02:42:57.644Z,102166.69
2023-04-16T02:45:24.756Z,102167.53
2023-04-16T02:47:51.704Z,102169.69
2023-04-16T02:50:18.379Z,102161.13
2023-04-16T02:52:44.751Z,102168.84
2023-04-16T02:55:11.371Z,102172.75
2023-04-16T02:57:37.739Z,102157.53
2023-04-16T03:00:11.090Z,102170.97
2023-04-16T03:02:37.491Z,102172.22
2023-04-16T03:05:04.202Z,102168.00
2023-04-16T03:07:30.630Z,102166.72
2023-04-16T03:09:56.992Z,102158.53
2023-04-16T03:12:23.416Z,102168.66
2023-04-16T03:14:51.160Z,102184.06
2023-04-16T03:17:17.659Z,102170.66
2023-04-16T03:19:43.988Z,102186.19
2023-04-16T03:22:10.333Z,102189.94
2023-04-16T03:24:36.675Z,102188.47
2023-04-16T03:27:02.956Z,102172.97
2023-04-16T03:29:29.290Z,102179.16
2023-04-16T03:31:55.572Z,102186.34
2023-04-16T03:34:21.924Z,102184.09
2023-04-16T03:36:48.275Z,102177.91
2023-04-16T03:39:14.575Z,102195.72
2023-04-16T03:41:40.936Z,102192.91
2023-04-16T03:44:07.332Z,102190.25
2023-04-16T03:46:33.771Z,102195.84
2023-04-16T03:49:00.114Z,102186.31
2023-04-16T03:51:26.554Z,102183.00
2023-04-16T03:53:52.927Z,102194.75
2023-04-16T03:56:19.262Z,102206.84
2023-04-16T03:58:45.612Z,102202.59
2023-04-16T04:01:11.962Z,102195.22
2023-04-16T04:03:38.371Z,102203.06
2023-04-16T04:06:08.615Z,102203.78
2023-04-16T04:08:35.125Z,102204.28
2023-04-16T04:11:01.463Z,102209.81
2023-04-16T04:13:27.820Z,102204.09
2023-04-16T04:15:54.219Z,102195.00
2023-04-16T04:18:20.627Z,102199.44
2023-04-16T04:20:46.990Z,102205.44
2023-04-16T04:23:13.339Z,102204.63
2023-04-16T04:25:39.626Z,102216.06
2023-04-16T04:28:05.938Z,102197.41
2023-04-16T04:30:32.281Z,102214.25
2023-04-16T04:32:58.650Z,102208.22
2023-04-16T04:35:25.036Z,102218.50
2023-04-16T04:37:51.356Z,102216.34
2023-04-16T04:40:17.737Z,102214.22
2023-04-16T04:42:44.156Z,102220.75
2023-04-16T04:45:10.733Z,102225.47
2023-04-16T04:47:37.097Z,102223.53
2023-04-16T04:50:03.889Z,102220.09
2023-04-16T04:52:30.252Z,102217.59
2023-04-16T04:54:56.853Z,102227.41
2023-04-16T04:57:23.284Z,102224.50
2023-04-16T04:59:49.706Z,102234.16
2023-04-16T05:02:16.178Z,102224.03
2023-04-16T05:04:42.623Z,102235.75
2023-04-16T05:07:09.008Z,102234.44
2023-04-16T05:09:35.353Z,102232.25
2023-04-16T05:12:01.792Z,102238.88
2023-04-16T05:14:28.183Z,102239.31
2023-04-16T05:16:54.554Z,102242.97
2023-04-16T05:19:20.931Z,102253.28
2023-04-16T05:21:47.267Z,102249.00
2023-04-16T05:24:15.014Z,102260.50
2023-04-16T05:26:41.485Z,102264.06
2023-04-16T05:29:07.961Z,102247.56
2023-04-16T05:31:34.515Z,102266.72
2023-04-16T05:34:00.855Z,102278.16
2023-04-16T05:36:27.195Z,102269.13
2023-04-16T05:38:53.512Z,102278.97
2023-04-16T05:41:19.812Z,102276.53
2023-04-16T05:43:46.155Z,102260.13
2023-04-16T05:46:12.575Z,102267.34
2023-04-16T05:48:38.941Z,102278.91
2023-04-16T05:51:05.367Z,102278.63
2023-04-16T05:53:31.692Z,102286.28
2023-04-16T05:55:58.043Z,102278.16
2023-04-16T05:58:24.400Z,102293.00
2023-04-16T06:00:51.049Z,102280.25
2023-04-16T06:03:17.525Z,102280.03
2023-04-16T06:05:44.728Z,102286.28
2023-04-16T06:08:11.140Z,102296.09
2023-04-16T06:10:37.746Z,102292.63
2023-04-16T06:13:04.109Z,102287.47
2023-04-16T06:15:30.503Z,102289.59
2023-04-16T06:18:00.277Z,102299.09
2023-04-16T06:20:27.214Z,102305.63
2023-04-16T06:22:53.569Z,102290.63
2023-04-16T06:25:19.915Z,102303.72
2023-04-16T06:27:46.256Z,102299.78
2023-04-16T06:30:14.019Z,102299.91
2023-04-16T06:32:40.754Z,102297.75
2023-04-16T06:35:07.459Z,102303.78
2023-04-16T06:37:33.809Z,102316.91
2023-04-16T06:40:00.209Z,102312.81
2023-04-16T06:42:26.563Z,102312.94
2023-04-16T06:44:52.871Z,102319.84
2023-04-16T06:47:19.309Z,102312.44
2023-04-16T06:49:45.609Z,102322.50
2023-04-16T06:52:12.059Z,102319.06
2023-04-16T06:54:39.730Z,102317.72
2023-04-16T06:57:06.142Z,102324.78
2023-04-16T06:59:32.475Z,102332.47
2023-04-16T07:01:58.964Z,102339.41
2023-04-16T07:04:25.491Z,102339.25
2023-04-16T07:06:51.872Z,102319.66
2023-04-16T07:09:18.204Z,102329.53
2023-04-16T07:11:44.716Z,102328.53
2023-04-16T07:14:11.100Z,102345.06
2023-04-16T07:16:37.589Z,102340.34
2023-04-16T07:19:04.112Z,102348.41
2023-04-16T07:21:30.426Z,102349.06
2023-04-16T07:23:56.759Z,102347.25
2023-04-16T07:26:23.146Z,102337.59
2023-04-16T07:28:49.492Z,102353.00
2023-04-16T07:31:15.802Z,102332.53
2023-04-16T07:33:42.122Z,102346.16
2023-04-16T07:36:08.442Z,102344.19
2023-04-16T07:38:34.758Z,102363.38
2023-04-16T07:41:01.151Z,102347.84
2023-04-16T07:43:27.501Z,102374.31
2023-04-16T07:45:53.914Z,102358.44
2023-04-16T07:48:20.400Z,102356.34
2023-04-16T07:50:46.762Z,102376.81
2023-04-16T07:53:13.114Z,102361.75
2023-04-16T07:55:39.448Z,102369.31
2023-04-16T07:58:05.808Z,102377.47
2023-04-16T08:00:32.208Z,102379.47
2023-04-16T08:02:58.772Z,102375.72
2023-04-16T08:05:25.221Z,102375.88
2023-04-16T08:07:51.610Z,102381.63
2023-04-16T08:10:18.013Z,102377.38
2023-04-16T08:12:44.348Z,102383.25
2023-04-16T08:15:10.934Z,102384.41
2023-04-16T08:17:37.393Z,102391.31
2023-04-16T08:20:04.473Z,102392.31
2023-04-16T08:22:30.881Z,102389.03
2023-04-16T08:24:57.354Z,102393.47
2023-04-16T08:27:23.665Z,102403.28
2023-04-16T08:29:50.050Z,102405.25
2023-04-16T08:32:16.421Z,102402.78
2023-04-16T08:34:42.900Z,102412.78
2023-04-16T08:37:09.644Z,102411.47
2023-04-16T08:39:36.029Z,102415.13
2023-04-16T08:42:05.672Z,102418.22
2023-04-16T08:44:37.231Z,102414.09
2023-04-16T08:47:08.006Z,102417.16
2023-04-16T08:49:36.273Z,102427.47
2023-04-16T08:52:06.207Z,102428.94
2023-04-16T08:54:57.263Z,102425.16
2023-04-16T08:57:26.601Z,102428.72
2023-04-16T08:59:54.699Z,102418.81
2023-04-16T09:02:21.244Z,102417.66
2023-04-16T09:04:49.746Z,102425.97
2023-04-16T09:07:17.562Z,102420.75
2023-04-16T09:09:44.105Z,102427.78
2023-04-16T09:12:10.479Z,102422.25
2023-04-16T09:14:36.799Z,102412.53
2023-04-16T09:17:04.078Z,102430.56
2023-04-16T09:19:30.446Z,102423.31
2023-04-16T09:21:56.830Z,102426.88
2023-04-16T09:24:23.679Z,102419.56
2023-04-16T09:26:50.831Z,102422.66
2023-04-16T09:29:40.451Z,102420.25
2023-04-16T09:32:09.176Z,102430.16
2023-04-16T09:34:54.119Z,102425.72
2023-04-16T09:37:20.601Z,102417.59
2023-04-16T09:39:55.704Z,102436.03
2023-04-16T09:42:24.795Z,102439.47
2023-04-16T09:44:51.103Z,102439.47
2023-04-16T09:47:17.713Z,102432.59
2023-04-16T09:49:44.423Z,102446.56
2023-04-16T09:52:15.445Z,102445.13
2023-04-16T09:54:52.859Z,102447.13
2023-04-16T09:57:23.784Z,102445.19
2023-04-16T10:00:03.708Z,102440.38
2023-04-16T10:02:31.099Z,102441.66
2023-04-16T10:04:57.633Z,102440.31
2023-04-16T10:07:29.001Z,102451.91
2023-04-16T10:09:55.627Z,102449.03
2023-04-16T10:12:22.197Z,102445.94
2023-04-16T10:14:50.102Z,102454.75
2023-04-16T10:17:17.174Z,102453.81
2023-04-16T10:19:44.234Z,102444.13
2023-04-16T10:22:11.549Z,102454.06
2023-04-16T10:24:38.705Z,102446.47
2023-04-16T10:27:05.029Z,102452.28
2023-04-16T10:29:32.766Z,102455.66
2023-04-16T10:31:59.762Z,102448.81
2023-04-16T10:34:27.026Z,102456.72
2023-04-16T10:36:54.390Z,102449.66
2023-04-16T10:39:23.280Z,102453.31
2023-04-16T10:41:50.696Z,102450.53
2023-04-16T10:44:19.052Z,102458.09
2023-04-16T10:46:49.222Z,102460.22
2023-04-16T10:49:17.898Z,102438.91
2023-04-16T10:51:52.358Z,102444.88
2023-04-16T10:54:18.629Z,102449.50
2023-04-16T10:56:46.712Z,102449.63
2023-04-16T10:59:13.455Z,102433.41
2023-04-16T11:01:45.005Z,102447.19
2023-04-16T11:04:20.528Z,102450.44
2023-04-16T11:07:11.562Z,102454.16
2023-04-16T11:09:44.062Z,102452.13
2023-04-16T11:12:13.209Z,102446.75
2023-04-16T11:14:41.194Z,102456.53
2023-04-16T11:17:08.043Z,102439.53
2023-04-16T11:19:38.022Z,102444.38
2023-04-16T11:22:05.009Z,102438.13
2023-04-16T11:24:32.696Z,102451.22
2023-04-16T11:26:59.240Z,102451.88
2023-04-16T11:29:25.671Z,102444.75
2023-04-16T11:31:53.226Z,102452.66
2023-04-16T11:34:20.017Z,102445.28
2023-04-16T11:36:47.927Z,102439.63
2023-04-16T11:39:14.480Z,102446.94
2023-04-16T11:41:43.798Z,102452.44
2023-04-16T11:44:21.175Z,102444.69
2023-04-16T11:46:48.129Z,102450.22
2023-04-16T11:49:14.541Z,102445.00
2023-04-16T11:51:45.572Z,102441.41
2023-04-16T11:54:22.476Z,102441.84
2023-04-16T11:56:50.963Z,102444.09
2023-04-16T11:59:19.645Z,102445.78
2023-04-16T12:01:48.653Z,102443.53
2023-04-16T12:04:16.473Z,102461.19
2023-04-16T12:07:05.486Z,102451.22
2023-04-16T12:09:32.171Z,102447.84
2023-04-16T12:11:58.498Z,102443.16
2023-04-16T12:14:24.852Z,102452.53
2023-04-16T12:16:51.257Z,102461.25
2023-04-16T12:19:18.060Z,102452.91
2023-04-16T12:21:46.179Z,102456.53
2023-04-16T12:24:14.548Z,102450.50
2023-04-16T12:26:43.371Z,102453.75
2023-04-16T12:29:21.312Z,102456.19
2023-04-16T12:31:48.341Z,102471.22
2023-04-16T12:34:15.226Z,102468.69
2023-04-16T12:36:42.603Z,102478.88
2023-04-16T12:39:09.602Z,102470.66
2023-04-16T12:41:41.108Z,102465.72
2023-04-16T12:44:15.597Z,102473.28
2023-04-16T12:46:43.305Z,102465.28
2023-04-16T12:49:11.114Z,102464.97
2023-04-16T12:51:38.970Z,102474.41
2023-04-16T12:54:06.773Z,102484.34
2023-04-16T12:56:33.452Z,102476.97
2023-04-16T12:58:59.804Z,102476.84
2023-04-16T13:01:26.181Z,102478.06
2023-04-16T13:03:53.020Z,102485.06
2023-04-16T13:06:20.054Z,102483.63
2023-04-16T13:08:46.429Z,102485.34
2023-04-16T13:11:13.017Z,102480.84
2023-04-16T13:13:39.473Z,102490.44
2023-04-16T13:16:05.876Z,102461.03
2023-04-16T13:18:32.779Z,102477.50
2023-04-16T13:20:59.181Z,102486.78
2023-04-16T13:23:25.665Z,102474.03
2023-04-16T13:25:52.004Z,102467.97
2023-04-16T13:28:18.351Z,102479.09
2023-04-16T13:30:45.784Z,102486.91
2023-04-16T13:33:12.183Z,102483.78
2023-04-16T13:35:38.986Z,102480.88
2023-04-16T13:38:05.433Z,102461.91
2023-04-16T13:40:31.821Z,102469.78
2023-04-16T13:42:58.127Z,102470.75
2023-04-16T13:45:24.583Z,102465.09
2023-04-16T13:47:50.976Z,102465.97
2023-04-16T13:50:17.438Z,102468.50
2023-04-16T13:52:43.737Z,102460.50
2023-04-16T13:55:10.198Z,102464.25
2023-04-16T13:57:36.614Z,102454.06
2023-04-16T14:00:03.180Z,102455.59
2023-04-16T14:02:29.644Z,102458.38
2023-04-16T14:04:56.034Z,102465.94
2023-04-16T14:07:22.341Z,102464.19
2023-04-16T14:09:48.680Z,102458.22
2023-04-16T14:12:15.030Z,102451.81
2023-04-16T14:14:41.416Z,102461.25
2023-04-16T14:17:07.784Z,102463.34
2023-04-16T14:19:34.120Z,102455.72
2023-04-16T14:22:00.505Z,102459.63
2023-04-16T14:24:26.841Z,102468.63
2023-04-16T14:26:53.170Z,102464.44
2023-04-16T14:29:19.542Z,102467.94
2023-04-16T14:31:45.959Z,102465.22
2023-04-16T14:34:12.289Z,102454.97
2023-04-16T14:36:38.629Z,102465.34
2023-04-16T14:39:05.003Z,102468.97
2023-04-16T14:41:31.412Z,102468.28
2023-04-16T14:43:59.074Z,102461.00
2023-04-16T14:46:25.469Z,102480.34
2023-04-16T14:48:51.838Z,102461.81
2023-04-16T14:51:18.335Z,102463.94
2023-04-16T14:53:44.680Z,102474.06
2023-04-16T14:56:11.199Z,102465.81
2023-04-16T14:58:39.283Z,102459.50
2023-04-16T15:01:06.893Z,102461.94
2023-04-16T15:03:34.721Z,102465.09
2023-04-16T15:06:01.678Z,102466.63
2023-04-16T15:08:28.035Z,102457.66
2023-04-16T15:10:54.351Z,102462.47
2023-04-16T15:13:20.665Z,102474.53
2023-04-16T15:15:47.294Z,102456.41
2023-04-16T15:18:13.671Z,102470.06
2023-04-16T15:20:40.068Z,102458.47
2023-04-16T15:23:06.399Z,102459.31
2023-04-16T15:25:32.875Z,102454.56
2023-04-16T15:27:59.230Z,102464.56
2023-04-16T15:30:25.660Z,102461.50
2023-04-16T15:32:51.978Z,102458.19
2023-04-16T15:35:18.372Z,102470.00
2023-04-16T15:37:44.750Z,102470.09
2023-04-16T15:40:11.225Z,102461.91
2023-04-16T15:42:37.824Z,102457.28
2023-04-16T15:45:04.533Z,102460.59
2023-04-16T15:47:30.847Z,102467.16
2023-04-16T15:49:57.280Z,102453.38
2023-04-16T15:52:23.699Z,102455.09
2023-04-16T15:54:50.133Z,102459.28
2023-04-16T15:57:16.533Z,102475.41
2023-04-16T15:59:46.193Z,102473.59
2023-04-16T16:02:19.415Z,102479.53
2023-04-16T16:04:45.981Z,102466.63
2023-04-16T16:07:12.713Z,102477.50
2023-04-16T16:09:39.023Z,102476.25
2023-04-16T16:12:05.579Z,102471.72
2023-04-16T16:14:33.013Z,102478.97
2023-04-16T16:16:59.392Z,102481.16
2023-04-16T16:19:25.683Z,102466.56
2023-04-16T16:21:52.027Z,102483.22
2023-04-16T16:24:18.410Z,102467.38
2023-04-16T16:26:44.760Z,102471.34
2023-04-16T16:29:11.351Z,102483.31
2023-04-16T16:31:37.973Z,102470.59
2023-04-16T16:34:04.441Z,102473.63
2023-04-16T16:36:30.813Z,102466.72
2023-04-16T16:38:57.174Z,102472.13
2023-04-16T16:41:23.539Z,102467.13
2023-04-16T16:43:49.871Z,102473.03
2023-04-16T16:46:16.280Z,102474.03
2023-04-16T16:48:42.604Z,102469.97
2023-04-16T16:51:09.992Z,102479.41
2023-04-16T16:53:36.332Z,102477.66
2023-04-16T16:56:02.674Z,102482.09
2023-04-16T16:58:29.007Z,102482.41
2023-04-16T17:00:55.363Z,102482.28
2023-04-16T17:03:21.759Z,102490.00
2023-04-16T17:05:48.166Z,102480.34
2023-04-16T17:08:14.504Z,102478.09
2023-04-16T17:10:40.779Z,102479.31
2023-04-16T17:13:07.142Z,102487.84
2023-04-16T17:15:33.498Z,102466.63
2023-04-16T17:17:59.838Z,102471.69
2023-04-16T17:20:26.233Z,102482.88
2023-04-16T17:22:52.548Z,102478.75
2023-04-16T17:25:18.878Z,102477.31
2023-04-16T17:27:45.197Z,102476.66
2023-04-16T17:30:11.738Z,102474.56
2023-04-16T17:32:38.123Z,102491.31
2023-04-16T17:35:04.929Z,102484.03
2023-04-16T17:37:31.360Z,102487.47
2023-04-16T17:39:57.715Z,102482.75
2023-04-16T17:42:24.025Z,102502.28
2023-04-16T17:44:50.381Z,102498.88
2023-04-16T17:47:16.768Z,102500.59
2023-04-16T17:49:43.140Z,102514.88
2023-04-16T17:52:09.464Z,102508.06
2023-04-16T17:54:35.778Z,102512.22
2023-04-16T17:57:02.207Z,102507.22
2023-04-16T17:59:28.576Z,102508.75
2023-04-16T18:01:54.983Z,102524.31
2023-04-16T18:04:21.620Z,102525.50
2023-04-16T18:06:48.031Z,102515.03
2023-04-16T18:09:14.348Z,102508.13
2023-04-16T18:11:40.720Z,102523.72
2023-04-16T18:14:07.072Z,102536.47
2023-04-16T18:16:33.412Z,102537.94
2023-04-16T18:18:59.747Z,102533.97
2023-04-16T18:21:26.092Z,102538.03
2023-04-16T18:23:52.415Z,102532.66
2023-04-16T18:26:21.120Z,102531.50
2023-04-16T18:28:49.224Z,102538.22
2023-04-16T18:31:15.601Z,102546.41
2023-04-16T18:33:55.545Z,102543.28
2023-04-16T18:36:23.460Z,102535.94
2023-04-16T18:39:00.270Z,102543.28
2023-04-16T18:41:27.818Z,102546.56
2023-04-16T18:43:54.156Z,102554.78
2023-04-16T18:46:20.560Z,102554.94
2023-04-16T18:48:46.902Z,102547.72
2023-04-16T18:51:15.440Z,102561.31
2023-04-16T18:53:43.263Z,102561.31
2023-04-16T18:56:09.801Z,102553.94
2023-04-16T18:58:36.133Z,102561.78
2023-04-16T19:01:02.598Z,102557.66
2023-04-16T19:03:29.143Z,102556.69
2023-04-16T19:05:55.738Z,102560.28
2023-04-16T19:08:22.116Z,102555.81
2023-04-16T19:10:49.710Z,102569.59
2023-04-16T19:13:16.406Z,102574.50
2023-04-16T19:15:42.818Z,102580.09
2023-04-16T19:18:09.133Z,102584.50
2023-04-16T19:20:36.814Z,102584.34
2023-04-16T19:23:06.576Z,102582.00
2023-04-16T19:25:32.970Z,102589.09
2023-04-16T19:27:59.432Z,102576.47
2023-04-16T19:30:25.850Z,102580.38
2023-04-16T19:32:54.676Z,102583.63
2023-04-16T19:35:21.910Z,102581.66
2023-04-16T19:37:48.302Z,102591.94
2023-04-16T19:40:14.691Z,102584.84
2023-04-16T19:42:41.054Z,102589.41
2023-04-16T19:45:07.735Z,102580.56
2023-04-16T19:47:34.070Z,102600.53
2023-04-16T19:50:00.440Z,102607.72
2023-04-16T19:52:26.800Z,102595.94
2023-04-16T19:54:53.109Z,102600.22
2023-04-16T19:57:19.420Z,102611.78
2023-04-16T19:59:45.737Z,102608.94
2023-04-16T20:02:12.103Z,102611.41
2023-04-16T20:04:38.495Z,102614.50
2023-04-16T20:07:04.846Z,102617.41
2023-04-16T20:09:31.177Z,102615.06
2023-04-16T20:11:57.511Z,102613.34
2023-04-16T20:14:23.886Z,102620.16
2023-04-16T20:16:50.244Z,102621.41
2023-04-16T20:19:17.094Z,102608.44
2023-04-16T20:21:43.595Z,102608.22
2023-04-16T20:24:09.963Z,102621.69
2023-04-16T20:26:36.384Z,102607.56
2023-04-16T20:29:02.924Z,102616.44
2023-04-16T20:31:29.335Z,102612.78
2023-04-16T20:33:55.748Z,102622.94
2023-04-16T20:36:22.130Z,102623.16
2023-04-16T20:38:48.438Z,102618.53
2023-04-16T20:41:14.784Z,102632.75
2023-04-16T20:43:41.231Z,102619.59
2023-04-16T20:46:08.606Z,102634.50
2023-04-16T20:48:35.089Z,102614.94
2023-04-16T20:51:02.758Z,102611.22
2023-04-16T20:53:29.778Z,102611.75
2023-04-16T20:55:56.091Z,102616.59
2023-04-16T20:58:22.399Z,102618.91
2023-04-16T21:00:52.609Z,102623.38
2023-04-16T21:03:19.979Z,102612.03
2023-04-16T21:05:49.729Z,102603.53
2023-04-16T21:08:20.120Z,102614.78
2023-04-16T21:10:46.848Z,102605.69
2023-04-16T21:13:13.466Z,102614.88
2023-04-16T21:15:41.243Z,102618.81
2023-04-16T21:18:08.321Z,102623.03
2023-04-16T21:20:34.895Z,102624.16
2023-04-16T21:23:02.413Z,102607.94
2023-04-16T21:25:29.414Z,102615.63
2023-04-16T21:27:55.971Z,102610.69
2023-04-16T21:30:22.376Z,102608.47
2023-04-16T21:32:49.016Z,102615.78
2023-04-16T21:35:15.360Z,102620.63
2023-04-16T21:37:41.724Z,102604.47
2023-04-16T21:40:08.366Z,102623.69
2023-04-16T21:42:35.542Z,102610.09
2023-04-16T21:45:01.904Z,102620.81
2023-04-16T21:47:28.244Z,102620.25
2023-04-16T21:49:54.597Z,102615.59
2023-04-16T21:52:21.002Z,102621.22
2023-04-16T21:54:47.560Z,102608.03
2023-04-16T21:57:13.862Z,102610.50
2023-04-16T21:59:40.539Z,102607.22
2023-04-16T22:02:06.918Z,102606.00
2023-04-16T22:04:33.320Z,102614.13
2023-04-16T22:06:59.653Z,102607.19
2023-04-16T22:09:25.982Z,102603.59
2023-04-16T22:11:52.292Z,102606.59
2023-04-16T22:14:18.644Z,102596.75
2023-04-16T22:16:45.040Z,102604.25
2023-04-16T22:19:11.601Z,102604.84
2023-04-16T22:21:38.182Z,102601.78
2023-04-16T22:24:04.771Z,102610.97
2023-04-16T22:26:31.114Z,102601.09
2023-04-16T22:28:57.466Z,102595.91
2023-04-16T22:31:23.828Z,102598.13
2023-04-16T22:33:50.183Z,102610.22
2023-04-16T22:36:16.528Z,102609.44
2023-04-16T22:38:42.890Z,102615.47
2023-04-16T22:41:09.244Z,102619.44
2023-04-16T22:43:35.562Z,102614.66
2023-04-16T22:46:05.721Z,102614.50
2023-04-16T22:48:33.669Z,102621.75
2023-04-16T22:51:00.007Z,102617.13
2023-04-16T22:53:26.326Z,102611.22
2023-04-16T22:55:52.598Z,102620.13
2023-04-16T22:58:18.991Z,102613.56
2023-04-16T23:00:45.414Z,102619.56
2023-04-16T23:03:11.776Z,102620.69
2023-04-16T23:05:38.207Z,102612.34
2023-04-16T23:08:04.685Z,102616.44
2023-04-16T23:10:30.996Z,102611.09
2023-04-16T23:12:57.308Z,102625.94
2023-04-16T23:15:23.936Z,102620.69
2023-04-16T23:17:50.368Z,102613.31
2023-04-16T23:20:16.818Z,102618.00
2023-04-16T23:22:43.150Z,102604.53
2023-04-16T23:25:09.784Z,102611.78
2023-04-16T23:27:36.590Z,102612.59
2023-04-16T23:30:03.569Z,102624.00
2023-04-16T23:32:29.939Z,102610.84
2023-04-16T23:34:56.314Z,102612.50
2023-04-16T23:37:22.669Z,102625.28
2023-04-16T23:39:49.019Z,102624.59
2023-04-16T23:42:15.326Z,102611.97
2023-04-16T23:44:41.777Z,102623.25
2023-04-16T23:47:08.144Z,102624.50
2023-04-16T23:49:34.509Z,102622.16
2023-04-16T23:52:00.874Z,102631.34
2023-04-16T23:54:27.286Z,102618.47
2023-04-16T23:56:53.700Z,102622.84
2023-04-16T23:59:20.045Z,102607.38
